createdAt,value
2022-07-31T00:00:15.231Z,101654.25
2022-07-31T00:02:41.695Z,101641.50
2022-07-31T00:05:08.592Z,101643.16
2022-07-31T00:07:35.107Z,101635.41
2022-07-31T00:10:01.635Z,101638.22
2022-07-31T00:12:28.029Z,101634.44
2022-07-31T00:14:54.565Z,101633.41
2022-07-31T00:17:21.111Z,101633.16
2022-07-31T00:19:47.533Z,101626.06
2022-07-31T00:22:13.974Z,101628.56
2022-07-31T00:24:40.480Z,101626.44
2022-07-31T00:27:07.245Z,101621.25
2022-07-31T00:29:33.725Z,101622.09
2022-07-31T00:32:00.149Z,101615.47
2022-07-31T00:34:26.555Z,101615.47
2022-07-31T00:36:52.933Z,101606.28
2022-07-31T00:39:19.347Z,101620.78
2022-07-31T00:41:46.597Z,101621.00
2022-07-31T00:44:14.187Z,101618.53
2022-07-31T00:46:42.067Z,101609.34
2022-07-31T00:49:12.842Z,101605.13
2022-07-31T00:51:40.094Z,101603.69
2022-07-31T00:54:08.367Z,101602.06
2022-07-31T00:56:35.629Z,101599.56
2022-07-31T00:59:03.011Z,101596.03
2022-07-31T01:01:30.721Z,101586.28
2022-07-31T01:03:57.389Z,101594.03
2022-07-31T01:06:23.859Z,101591.94
2022-07-31T01:08:50.378Z,101586.63
2022-07-31T01:11:24.800Z,101588.25
2022-07-31T01:13:56.036Z,101596.16
2022-07-31T01:16:26.194Z,101577.19
2022-07-31T01:18:56.692Z,101599.22
2022-07-31T01:21:31.836Z,101592.41
2022-07-31T01:24:28.988Z,101590.06
2022-07-31T01:27:06.404Z,101583.31
2022-07-31T01:29:39.873Z,101594.03
2022-07-31T01:32:10.613Z,101596.88
2022-07-31T01:34:41.992Z,101588.84
2022-07-31T01:37:30.195Z,101589.09
2022-07-31T01:40:05.792Z,101590.28
2022-07-31T01:42:36.566Z,101573.09
2022-07-31T01:45:05.385Z,101593.00
2022-07-31T01:47:34.416Z,101582.50
2022-07-31T01:50:02.674Z,101588.72
2022-07-31T01:52:32.381Z,101582.59
2022-07-31T01:55:00.654Z,101590.63
2022-07-31T01:57:29.509Z,101587.91
2022-07-31T02:00:00.868Z,101580.72
2022-07-31T02:02:30.314Z,101586.97
2022-07-31T02:04:58.128Z,101578.75
2022-07-31T02:07:26.389Z,101574.59
2022-07-31T02:09:58.807Z,101572.38
2022-07-31T02:12:33.212Z,101573.88
2022-07-31T02:15:06.370Z,101562.94
2022-07-31T02:17:34.902Z,101574.72
2022-07-31T02:20:03.528Z,101567.19
2022-07-31T02:22:30.023Z,101570.72
2022-07-31T02:24:56.674Z,101569.66
2022-07-31T02:27:57.855Z,101566.72
2022-07-31T02:30:12.464Z,101558.00
2022-07-31T02:32:40.861Z,101546.56
2022-07-31T02:35:08.603Z,101549.97
2022-07-31T02:37:37.349Z,101551.63
2022-07-31T02:40:06.958Z,101563.03
2022-07-31T02:42:34.246Z,101561.88
2022-07-31T02:45:01.991Z,101552.22
2022-07-31T02:47:31.494Z,101553.59
2022-07-31T02:49:58.353Z,101560.81
2022-07-31T02:52:25.028Z,101553.72
2022-07-31T02:54:52.816Z,101551.25
2022-07-31T02:57:19.330Z,101553.72
2022-07-31T02:59:45.737Z,101546.41
2022-07-31T03:02:12.152Z,101539.72
2022-07-31T03:04:38.600Z,101535.09
2022-07-31T03:07:05.021Z,101529.66
2022-07-31T03:09:31.611Z,101522.97
2022-07-31T03:12:04.067Z,101530.00
2022-07-31T03:14:35.390Z,101505.66
2022-07-31T03:17:03.308Z,101536.41
2022-07-31T03:19:31.339Z,101531.88
2022-07-31T03:21:59.440Z,101531.34
2022-07-31T03:24:26.961Z,101532.28
2022-07-31T03:26:53.407Z,101522.59
2022-07-31T03:29:43.442Z,101512.69
2022-07-31T03:32:07.168Z,101519.75
2022-07-31T03:34:33.719Z,101523.75
2022-07-31T03:37:00.204Z,101525.06
2022-07-31T03:39:26.617Z,101519.75
2022-07-31T03:41:54.991Z,101514.09
2022-07-31T03:44:21.973Z,101513.88
2022-07-31T03:46:48.438Z,101514.81
2022-07-31T03:49:15.461Z,101507.97
2022-07-31T03:51:41.966Z,101506.19
2022-07-31T03:54:08.490Z,101498.78
2022-07-31T03:56:36.483Z,101504.22
2022-07-31T03:59:04.075Z,101506.44
2022-07-31T04:01:58.212Z,101502.44
2022-07-31T04:04:18.407Z,101510.78
2022-07-31T04:06:45.205Z,101509.41
2022-07-31T04:09:15.497Z,101500.13
2022-07-31T04:11:45.756Z,101500.13
2022-07-31T04:14:12.273Z,101503.66
2022-07-31T04:16:38.815Z,101506.00
2022-07-31T04:19:05.212Z,101504.47
2022-07-31T04:21:31.612Z,101502.69
2022-07-31T04:23:58.003Z,101495.84
2022-07-31T04:26:26.026Z,101494.66
2022-07-31T04:28:52.968Z,101499.47
2022-07-31T04:31:19.395Z,101508.81
2022-07-31T04:33:46.596Z,101503.97
2022-07-31T04:36:29.523Z,101498.56
2022-07-31T04:38:57.465Z,101487.59
2022-07-31T04:41:23.869Z,101492.41
2022-07-31T04:43:50.419Z,101490.53
2022-07-31T04:46:17.241Z,101487.94
2022-07-31T04:48:44.966Z,101483.91
2022-07-31T04:51:19.345Z,101484.25
2022-07-31T04:53:46.530Z,101488.84
2022-07-31T04:56:32.733Z,101483.19
2022-07-31T04:59:03.721Z,101474.50
2022-07-31T05:01:30.582Z,101478.84
2022-07-31T05:03:57.411Z,101473.16
2022-07-31T05:06:32.805Z,101480.97
2022-07-31T05:08:59.228Z,101488.63
2022-07-31T05:11:26.766Z,101482.69
2022-07-31T05:13:55.462Z,101482.63
2022-07-31T05:16:23.063Z,101481.56
2022-07-31T05:18:49.923Z,101477.47
2022-07-31T05:21:16.796Z,101479.91
2022-07-31T05:23:44.371Z,101480.31
2022-07-31T05:26:11.252Z,101480.06
2022-07-31T05:28:38.735Z,101475.78
2022-07-31T05:31:06.982Z,101482.22
2022-07-31T05:33:33.778Z,101480.84
2022-07-31T05:36:00.948Z,101483.22
2022-07-31T05:38:27.956Z,101482.13
2022-07-31T05:40:54.460Z,101478.84
2022-07-31T05:43:21.143Z,101473.75
2022-07-31T05:45:47.710Z,101470.78
2022-07-31T05:48:15.228Z,101466.88
2022-07-31T05:50:46.074Z,101472.41
2022-07-31T05:53:15.091Z,101470.19
2022-07-31T05:55:43.271Z,101452.97
2022-07-31T05:58:13.591Z,101459.09
2022-07-31T06:00:44.107Z,101454.72
2022-07-31T06:03:12.452Z,101445.28
2022-07-31T06:05:40.381Z,101454.34
2022-07-31T06:08:08.753Z,101457.13
2022-07-31T06:10:36.844Z,101462.78
2022-07-31T06:13:04.619Z,101468.47
2022-07-31T06:15:36.065Z,101463.28
2022-07-31T06:18:04.112Z,101472.00
2022-07-31T06:20:31.025Z,101464.59
2022-07-31T06:22:57.901Z,101470.63
2022-07-31T06:25:25.018Z,101467.66
2022-07-31T06:28:00.062Z,101465.75
2022-07-31T06:30:27.902Z,101469.28
2022-07-31T06:32:54.511Z,101467.91
2022-07-31T06:35:21.014Z,101476.50
2022-07-31T06:37:47.483Z,101470.63
2022-07-31T06:40:14.502Z,101467.56
2022-07-31T06:42:41.784Z,101468.13
2022-07-31T06:45:09.086Z,101473.16
2022-07-31T06:47:35.583Z,101472.34
2022-07-31T06:50:02.367Z,101466.09
2022-07-31T06:52:28.906Z,101459.09
2022-07-31T06:54:55.575Z,101460.50
2022-07-31T06:57:22.046Z,101479.13
2022-07-31T06:59:48.509Z,101467.91
2022-07-31T07:02:14.940Z,101472.84
2022-07-31T07:04:56.391Z,101472.19
2022-07-31T07:07:32.103Z,101466.75
2022-07-31T07:09:59.095Z,101473.69
2022-07-31T07:12:25.505Z,101465.38
2022-07-31T07:14:53.381Z,101461.91
2022-07-31T07:17:19.849Z,101462.16
2022-07-31T07:19:46.493Z,101452.69
2022-07-31T07:22:31.360Z,101445.28
2022-07-31T07:24:59.987Z,101469.66
2022-07-31T07:27:26.540Z,101459.78
2022-07-31T07:29:53.159Z,101466.59
2022-07-31T07:32:19.608Z,101456.56
2022-07-31T07:34:46.089Z,101449.00
2022-07-31T07:37:12.579Z,101456.66
2022-07-31T07:39:39.039Z,101457.97
2022-07-31T07:42:05.856Z,101451.22
2022-07-31T07:44:32.626Z,101450.91
2022-07-31T07:46:59.058Z,101448.19
2022-07-31T07:49:25.562Z,101447.09
2022-07-31T07:52:10.191Z,101442.00
2022-07-31T07:54:36.962Z,101438.75
2022-07-31T07:57:03.550Z,101444.81
2022-07-31T07:59:30.333Z,101450.31
2022-07-31T08:01:56.748Z,101448.84
2022-07-31T08:04:23.158Z,101447.28
2022-07-31T08:06:49.614Z,101444.88
2022-07-31T08:09:16.392Z,101444.16
2022-07-31T08:11:42.883Z,101437.66
2022-07-31T08:14:09.629Z,101444.41
2022-07-31T08:16:36.122Z,101440.28
2022-07-31T08:19:02.606Z,101436.50
2022-07-31T08:21:29.024Z,101442.50
2022-07-31T08:23:55.480Z,101438.75
2022-07-31T08:26:22.511Z,101438.16
2022-07-31T08:28:49.809Z,101439.28
2022-07-31T08:31:18.816Z,101426.22
2022-07-31T08:33:45.217Z,101432.22
2022-07-31T08:36:11.757Z,101428.75
2022-07-31T08:38:39.217Z,101434.78
2022-07-31T08:41:06.117Z,101442.84
2022-07-31T08:44:00.637Z,101435.59
2022-07-31T08:46:20.390Z,101435.84
2022-07-31T08:48:48.510Z,101445.13
2022-07-31T08:51:16.987Z,101438.31
2022-07-31T08:53:44.697Z,101430.97
2022-07-31T08:56:11.912Z,101436.31
2022-07-31T08:58:40.140Z,101428.69
2022-07-31T09:01:08.640Z,101444.00
2022-07-31T09:03:36.129Z,101439.78
2022-07-31T09:06:03.517Z,101446.13
2022-07-31T09:08:33.911Z,101441.28
2022-07-31T09:11:06.879Z,101438.06
2022-07-31T09:13:34.970Z,101443.84
2022-07-31T09:16:02.138Z,101439.47
2022-07-31T09:18:28.563Z,101437.31
2022-07-31T09:21:00.436Z,101428.84
2022-07-31T09:23:29.269Z,101428.59
2022-07-31T09:25:57.999Z,101434.63
2022-07-31T09:28:39.828Z,101431.31
2022-07-31T09:31:08.378Z,101424.50
2022-07-31T09:33:41.310Z,101434.88
2022-07-31T09:36:10.349Z,101429.09
2022-07-31T09:38:41.918Z,101429.50
2022-07-31T09:41:55.865Z,101414.06
2022-07-31T09:44:09.440Z,101432.97
2022-07-31T09:46:44.617Z,101434.38
2022-07-31T09:49:11.687Z,101435.44
2022-07-31T09:51:47.785Z,101429.69
2022-07-31T09:54:25.460Z,101426.38
2022-07-31T09:56:52.363Z,101427.81
2022-07-31T09:59:19.172Z,101422.38
2022-07-31T10:01:48.959Z,101426.97
2022-07-31T10:04:18.318Z,101433.56
2022-07-31T10:06:49.866Z,101424.84
2022-07-31T10:09:19.989Z,101407.06
2022-07-31T10:11:48.364Z,101436.75
2022-07-31T10:14:28.554Z,101430.50
2022-07-31T10:16:58.474Z,101432.41
2022-07-31T10:19:28.559Z,101436.75
2022-07-31T10:21:57.652Z,101437.25
2022-07-31T10:24:28.319Z,101425.00
2022-07-31T10:27:00.811Z,101431.06
2022-07-31T10:32:18.559Z,101425.63
2022-07-31T10:34:45.421Z,101417.81
2022-07-31T10:37:19.159Z,101418.72
2022-07-31T10:39:57.748Z,101424.81
2022-07-31T10:42:42.953Z,101413.81
2022-07-31T10:45:13.218Z,101421.19
2022-07-31T10:47:40.152Z,101414.53
2022-07-31T10:50:27.727Z,101399.66
2022-07-31T10:52:58.721Z,101426.72
2022-07-31T10:55:27.291Z,101417.69
2022-07-31T10:57:57.259Z,101424.75
2022-07-31T11:00:28.540Z,101414.97
2022-07-31T11:02:56.758Z,101414.66
2022-07-31T11:05:23.735Z,101411.34
2022-07-31T11:08:02.043Z,101411.94
2022-07-31T11:10:28.563Z,101414.13
2022-07-31T11:13:05.626Z,101414.47
2022-07-31T11:15:32.765Z,101419.38
2022-07-31T11:18:23.477Z,101422.94
2022-07-31T11:21:17.677Z,101422.94
2022-07-31T11:24:02.052Z,101415.84
2022-07-31T11:26:33.714Z,101412.91
2022-07-31T11:29:59.846Z,101417.50
2022-07-31T11:32:17.034Z,101412.31
2022-07-31T11:34:54.113Z,101406.63
2022-07-31T11:37:40.495Z,101396.44
2022-07-31T11:40:14.547Z,101409.88
2022-07-31T11:42:46.225Z,101411.16
2022-07-31T11:45:17.075Z,101410.59
2022-07-31T11:48:12.124Z,101419.31
2022-07-31T11:50:42.659Z,101426.31
2022-07-31T11:53:09.201Z,101427.63
2022-07-31T11:55:47.660Z,101422.69
2022-07-31T11:58:16.609Z,101422.34
2022-07-31T12:01:16.420Z,101426.69
2022-07-31T12:03:43.832Z,101429.41
2022-07-31T12:06:11.391Z,101424.31
2022-07-31T12:08:39.841Z,101417.75
2022-07-31T12:11:08.876Z,101419.75
2022-07-31T12:13:35.606Z,101426.81
2022-07-31T12:16:09.907Z,101419.25
2022-07-31T12:18:49.076Z,101422.03
2022-07-31T12:21:16.877Z,101415.22
2022-07-31T12:23:46.534Z,101418.16
2022-07-31T12:26:26.158Z,101415.69
2022-07-31T12:29:07.874Z,101419.50
2022-07-31T12:31:48.522Z,101416.78
2022-07-31T12:34:38.385Z,101415.69
2022-07-31T12:37:09.051Z,101417.75
2022-07-31T12:39:53.885Z,101417.81
2022-07-31T12:42:30.486Z,101417.56
2022-07-31T12:45:01.068Z,101415.13
2022-07-31T12:47:45.223Z,101413.44
2022-07-31T12:50:17.881Z,101411.81
2022-07-31T12:52:45.361Z,101407.69
2022-07-31T12:55:12.034Z,101403.66
2022-07-31T12:57:44.661Z,101411.31
2022-07-31T13:00:18.492Z,101395.28
2022-07-31T13:02:45.179Z,101413.19
2022-07-31T13:05:11.796Z,101410.75
2022-07-31T13:07:39.001Z,101402.03
2022-07-31T13:10:20.144Z,101408.84
2022-07-31T13:12:51.181Z,101400.97
2022-07-31T13:15:20.737Z,101400.97
2022-07-31T13:17:48.074Z,101405.06
2022-07-31T13:20:17.140Z,101405.81
2022-07-31T13:22:43.606Z,101403.59
2022-07-31T13:25:10.095Z,101412.00
2022-07-31T13:27:36.623Z,101401.66
2022-07-31T13:30:03.759Z,101403.84
2022-07-31T13:32:31.686Z,101394.38
2022-07-31T13:35:26.608Z,101403.66
2022-07-31T13:37:46.492Z,101399.56
2022-07-31T13:40:13.563Z,101397.91
2022-07-31T13:42:40.275Z,101383.19
2022-07-31T13:45:08.674Z,101391.41
2022-07-31T13:47:50.894Z,101398.50
2022-07-31T13:50:18.961Z,101399.41
2022-07-31T13:52:45.618Z,101391.00
2022-07-31T13:55:12.005Z,101397.81
2022-07-31T13:57:38.793Z,101389.59
2022-07-31T14:00:06.260Z,101390.34
2022-07-31T14:02:32.721Z,101391.41
2022-07-31T14:04:59.179Z,101393.06
2022-07-31T14:07:45.168Z,101387.94
2022-07-31T14:10:17.129Z,101384.41
2022-07-31T14:12:46.395Z,101393.19
2022-07-31T14:15:12.882Z,101392.13
2022-07-31T14:17:39.336Z,101390.47
2022-07-31T14:20:06.631Z,101377.22
2022-07-31T14:22:33.066Z,101383.47
2022-07-31T14:24:59.542Z,101389.16
2022-07-31T14:27:25.955Z,101382.09
2022-07-31T14:29:52.629Z,101380.44
2022-07-31T14:32:19.634Z,101384.16
2022-07-31T14:34:47.208Z,101387.50
2022-07-31T14:37:14.283Z,101393.53
2022-07-31T14:39:42.853Z,101385.13
2022-07-31T14:42:09.830Z,101387.06
2022-07-31T14:44:36.925Z,101378.41
2022-07-31T14:47:03.808Z,101373.47
2022-07-31T14:50:09.249Z,101385.25
2022-07-31T14:52:18.054Z,101373.81
2022-07-31T14:54:44.559Z,101377.59
2022-07-31T14:57:11.087Z,101379.31
2022-07-31T14:59:37.628Z,101389.59
2022-07-31T15:02:04.115Z,101383.84
2022-07-31T15:04:30.685Z,101384.94
2022-07-31T15:07:13.216Z,101384.59
2022-07-31T15:09:43.775Z,101379.19
2022-07-31T15:12:12.253Z,101382.97
2022-07-31T15:14:38.796Z,101381.13
2022-07-31T15:17:05.551Z,101385.00
2022-07-31T15:19:32.105Z,101371.66
2022-07-31T15:22:10.728Z,101382.41
2022-07-31T15:24:48.203Z,101376.75
2022-07-31T15:27:16.068Z,101378.22
2022-07-31T15:30:04.906Z,101370.66
2022-07-31T15:32:29.498Z,101384.25
2022-07-31T15:34:55.913Z,101379.22
2022-07-31T15:37:22.446Z,101386.25
2022-07-31T15:40:02.100Z,101381.50
2022-07-31T15:42:31.813Z,101385.31
2022-07-31T15:44:58.439Z,101383.91
2022-07-31T15:47:25.128Z,101385.81
2022-07-31T15:49:51.532Z,101377.34
2022-07-31T15:52:18.939Z,101379.75
2022-07-31T15:54:46.439Z,101382.22
2022-07-31T15:57:13.413Z,101383.28
2022-07-31T15:59:39.935Z,101358.66
2022-07-31T16:02:07.187Z,101388.47
2022-07-31T16:04:34.861Z,101388.16
2022-07-31T16:08:26.851Z,101381.31
2022-07-31T16:10:00.877Z,101379.44
2022-07-31T16:12:35.711Z,101378.53
2022-07-31T16:15:02.601Z,101379.63
2022-07-31T16:17:40.356Z,101378.53
2022-07-31T16:20:09.357Z,101366.53
2022-07-31T16:22:37.152Z,101372.31
2022-07-31T16:25:05.013Z,101376.31
2022-07-31T16:27:31.545Z,101376.31
2022-07-31T16:30:01.634Z,101374.13
2022-07-31T16:32:28.871Z,101363.25
2022-07-31T16:35:00.166Z,101372.22
2022-07-31T16:37:49.952Z,101366.81
2022-07-31T16:40:24.716Z,101363.44
2022-07-31T16:43:01.913Z,101364.81
2022-07-31T16:45:29.815Z,101371.34
2022-07-31T16:47:56.306Z,101371.84
2022-07-31T16:50:22.993Z,101360.91
2022-07-31T16:52:54.140Z,101367.47
2022-07-31T16:55:21.933Z,101372.66
2022-07-31T16:58:11.109Z,101372.91
2022-07-31T17:00:38.975Z,101365.00
2022-07-31T17:03:05.727Z,101353.31
2022-07-31T17:05:32.276Z,101360.91
2022-07-31T17:07:58.796Z,101354.59
2022-07-31T17:10:25.366Z,101353.56
2022-07-31T17:12:53.621Z,101364.19
2022-07-31T17:15:20.683Z,101364.44
2022-07-31T17:17:47.210Z,101369.34
2022-07-31T17:20:13.749Z,101366.09
2022-07-31T17:22:42.878Z,101377.22
2022-07-31T17:25:09.871Z,101369.06
2022-07-31T17:27:36.362Z,101383.75
2022-07-31T17:30:03.489Z,101378.91
2022-07-31T17:32:32.125Z,101386.16
2022-07-31T17:34:58.518Z,101385.34
2022-07-31T17:37:25.119Z,101383.44
2022-07-31T17:39:56.323Z,101378.25
2022-07-31T17:42:25.656Z,101380.41
2022-07-31T17:44:55.201Z,101380.03
2022-07-31T17:47:25.485Z,101384.44
2022-07-31T17:49:52.744Z,101395.06
2022-07-31T17:52:20.957Z,101392.59
2022-07-31T17:54:48.025Z,101388.94
2022-07-31T17:57:14.733Z,101392.25
2022-07-31T17:59:42.094Z,101400.63
2022-07-31T18:02:09.199Z,101404.41
2022-07-31T18:04:39.887Z,101398.69
2022-07-31T18:07:07.561Z,101397.59
2022-07-31T18:09:36.462Z,101391.59
2022-07-31T18:12:04.175Z,101398.69
2022-07-31T18:14:30.897Z,101392.41
2022-07-31T18:16:57.413Z,101395.06
2022-07-31T18:19:24.055Z,101399.47
2022-07-31T18:21:51.561Z,101397.00
2022-07-31T18:24:19.046Z,101399.16
2022-07-31T18:26:47.663Z,101404.00
2022-07-31T18:29:14.167Z,101406.41
2022-07-31T18:31:40.887Z,101407.78
2022-07-31T18:34:07.635Z,101411.00
2022-07-31T18:36:34.973Z,101409.94
2022-07-31T18:39:01.959Z,101407.47
2022-07-31T18:41:29.764Z,101414.31
2022-07-31T18:43:57.242Z,101422.94
2022-07-31T18:46:24.802Z,101426.72
2022-07-31T18:48:55.327Z,101420.13
2022-07-31T18:51:23.177Z,101423.09
2022-07-31T18:53:50.352Z,101432.22
2022-07-31T18:56:16.923Z,101432.22
2022-07-31T18:58:43.374Z,101428.94
2022-07-31T19:01:09.950Z,101423.00
2022-07-31T19:03:36.782Z,101433.88
2022-07-31T19:06:04.305Z,101430.81
2022-07-31T19:08:30.782Z,101432.47
2022-07-31T19:10:57.203Z,101430.50
2022-07-31T19:13:23.640Z,101430.81
2022-07-31T19:15:52.799Z,101441.22
2022-07-31T19:18:28.161Z,101442.25
2022-07-31T19:21:18.050Z,101441.25
2022-07-31T19:23:44.754Z,101439.13
2022-07-31T19:26:11.337Z,101446.47
2022-07-31T19:28:39.710Z,101449.88
2022-07-31T19:31:06.886Z,101451.31
2022-07-31T19:33:33.276Z,101454.03
2022-07-31T19:36:02.377Z,101451.06
2022-07-31T19:38:30.702Z,101452.94
2022-07-31T19:40:57.193Z,101457.78
2022-07-31T19:43:23.621Z,101465.94
2022-07-31T19:46:09.740Z,101467.50
2022-07-31T19:48:36.975Z,101468.53
2022-07-31T19:51:04.649Z,101468.47
2022-07-31T19:53:31.339Z,101468.47
2022-07-31T19:55:57.852Z,101467.06
2022-07-31T19:58:24.512Z,101479.91
2022-07-31T20:00:51.004Z,101478.84
2022-07-31T20:03:17.643Z,101479.22
2022-07-31T20:05:44.299Z,101485.63
2022-07-31T20:08:10.976Z,101486.91
2022-07-31T20:10:37.580Z,101489.19
2022-07-31T20:13:04.167Z,101488.38
2022-07-31T20:15:49.634Z,101498.06
2022-07-31T20:18:26.746Z,101494.50
2022-07-31T20:20:58.513Z,101505.34
2022-07-31T20:23:26.097Z,101501.00
2022-07-31T20:25:53.008Z,101509.75
2022-07-31T20:28:19.574Z,101509.75
2022-07-31T20:30:46.337Z,101508.81
2022-07-31T20:33:13.465Z,101512.00
2022-07-31T20:35:48.852Z,101509.50
2022-07-31T20:38:17.971Z,101515.41
2022-07-31T20:40:52.747Z,101516.22
2022-07-31T20:43:20.922Z,101514.81
2022-07-31T20:45:47.644Z,101513.75
2022-07-31T20:48:15.171Z,101515.16
2022-07-31T20:50:41.689Z,101513.88
2022-07-31T20:53:10.250Z,101508.09
2022-07-31T20:55:36.699Z,101514.81
2022-07-31T20:58:03.669Z,101518.03
2022-07-31T21:00:32.404Z,101514.38
2022-07-31T21:02:58.881Z,101522.16
2022-07-31T21:05:29.278Z,101520.72
2022-07-31T21:07:56.661Z,101527.22
2022-07-31T21:10:25.151Z,101526.88
2022-07-31T21:12:51.718Z,101524.66
2022-07-31T21:15:27.185Z,101529.94
2022-07-31T21:18:05.551Z,101532.31
2022-07-31T21:20:52.177Z,101535.25
2022-07-31T21:23:19.318Z,101540.09
2022-07-31T21:25:47.402Z,101542.56
2022-07-31T21:28:14.087Z,101540.31
2022-07-31T21:30:41.237Z,101545.97
2022-07-31T21:33:08.854Z,101541.59
2022-07-31T21:35:36.234Z,101540.81
2022-07-31T21:38:04.503Z,101545.38
2022-07-31T21:40:33.807Z,101544.56
2022-07-31T21:43:00.659Z,101545.88
2022-07-31T21:45:29.072Z,101549.38
2022-07-31T21:48:11.479Z,101542.69
2022-07-31T21:50:41.284Z,101545.63
2022-07-31T21:53:08.601Z,101547.16
2022-07-31T21:55:36.790Z,101543.63
2022-07-31T21:58:04.038Z,101548.22
2022-07-31T22:00:30.686Z,101544.09
2022-07-31T22:02:58.185Z,101551.84
2022-07-31T22:05:43.399Z,101548.59
2022-07-31T22:08:09.831Z,101540.09
2022-07-31T22:10:36.361Z,101544.44
2022-07-31T22:13:02.767Z,101549.63
2022-07-31T22:15:58.358Z,101546.09
2022-07-31T22:18:15.841Z,101540.81
2022-07-31T22:20:42.617Z,101542.44
2022-07-31T22:23:10.251Z,101541.84
2022-07-31T22:25:37.448Z,101543.97
2022-07-31T22:28:07.397Z,101547.75
2022-07-31T22:30:34.031Z,101540.44
2022-07-31T22:33:01.032Z,101544.31
2022-07-31T22:35:28.435Z,101548.94
2022-07-31T22:37:55.290Z,101551.66
2022-07-31T22:40:23.700Z,101549.75
2022-07-31T22:42:56.058Z,101554.13
2022-07-31T22:45:23.998Z,101563.88
2022-07-31T22:47:51.286Z,101554.69
2022-07-31T22:50:17.833Z,101567.44
2022-07-31T22:52:44.725Z,101567.91
2022-07-31T22:55:13.544Z,101569.53
2022-07-31T22:57:43.582Z,101572.47
2022-07-31T23:00:12.452Z,101574.84
2022-07-31T23:02:40.132Z,101567.06
2022-07-31T23:05:08.319Z,101575.91
2022-07-31T23:07:34.743Z,101576.13
2022-07-31T23:10:01.149Z,101572.25
2022-07-31T23:12:28.544Z,101577.41
2022-07-31T23:14:56.113Z,101579.28
2022-07-31T23:17:23.532Z,101578.47
2022-07-31T23:19:53.905Z,101578.25
2022-07-31T23:22:33.821Z,101574.13
2022-07-31T23:25:05.199Z,101574.94
2022-07-31T23:27:32.942Z,101573.28
2022-07-31T23:29:59.910Z,101585.53
2022-07-31T23:32:27.853Z,101580.59
2022-07-31T23:34:54.564Z,101582.94
2022-07-31T23:37:21.383Z,101576.94
2022-07-31T23:39:47.878Z,101575.88
2022-07-31T23:42:32.778Z,101581.28
2022-07-31T23:44:59.310Z,101578.22
2022-07-31T23:47:32.108Z,101584.09
2022-07-31T23:50:11.848Z,101573.16
2022-07-31T23:52:38.597Z,101583.88
2022-07-31T23:55:05.313Z,101585.53
2022-07-31T23:57:34.289Z,101583.06
